Time;durP1;ratioP1;P1;durP2;ratioP2;P2;SDS_P1;SDS_P2;PMS_P1;PMS_P2;Temp;Humidity;BMP_temperature;BMP_pressure;BME280_temperature;BME280_humidity;BME280_pressure;Samples;Min_cycle;Max_cycle;Signal;HPM_P1;HPM_P2
2022/06/06 00:01:54;;;;;;;16.58;13.02;;;22.10;99.90;;;;;;5022041;28;20197;-78
2022/06/06 00:04:24;;;;;;;17.83;14.20;;;21.90;99.90;;;;;;5021418;28;20045;-78
2022/06/06 00:06:53;;;;;;;18.85;13.57;;;21.90;99.90;;;;;;5021209;28;20061;-78
2022/06/06 00:09:21;;;;;;;23.42;13.63;;;21.90;99.90;;;;;;5019497;28;20497;-78
2022/06/06 00:11:49;;;;;;;17.30;13.00;;;21.80;99.90;;;;;;5019894;28;20045;-78
2022/06/06 00:14:18;;;;;;;17.52;12.93;;;21.90;99.90;;;;;;5020086;28;20084;-77
2022/06/06 00:16:45;;;;;;;17.77;13.00;;;21.80;99.90;;;;;;5035793;28;20037;-78
2022/06/06 00:19:14;;;;;;;16.05;12.88;;;21.80;99.90;;;;;;5038383;28;20489;-78
2022/06/06 00:21:43;;;;;;;16.98;13.43;;;21.70;99.90;;;;;;5048716;28;20033;-77
2022/06/06 00:24:11;;;;;;;16.98;13.68;;;21.70;99.90;;;;;;5043021;28;20060;-79
2022/06/06 00:26:39;;;;;;;15.80;13.82;;;21.60;99.90;;;;;;5044347;28;20044;-79
2022/06/06 00:29:08;;;;;;;19.55;13.85;;;21.60;99.90;;;;;;5034493;28;20084;-78
2022/06/06 00:34:52;;;;;;;16.25;12.98;;;21.60;99.90;;;;;;4979149;28;20047;-78
2022/06/06 00:37:23;;;;;;;19.23;13.30;;;21.50;99.90;;;;;;5017023;28;20057;-78
2022/06/06 00:39:51;;;;;;;16.92;12.85;;;21.50;99.90;;;;;;5017172;28;20085;-77
2022/06/06 00:42:23;;;;;;;16.55;13.38;;;21.40;99.90;;;;;;5017326;28;20044;-76
2022/06/06 00:45:26;;;;;;;15.52;12.63;;;21.30;99.90;;;;;;5016274;28;20485;-76
2022/06/06 00:47:58;;;;;;;17.33;12.70;;;21.20;99.90;;;;;;5016926;28;20083;-76
2022/06/06 00:50:35;;;;;;;18.92;13.63;;;21.20;99.90;;;;;;5034774;28;20041;-76
2022/06/06 00:53:04;;;;;;;20.40;14.70;;;21.10;99.90;;;;;;5035318;28;20068;-76
2022/06/06 00:55:35;;;;;;;16.17;13.02;;;21.00;99.90;;;;;;5040872;28;20057;-75
2022/06/06 00:58:05;;;;;;;15.85;12.80;;;21.00;99.90;;;;;;5034697;28;20050;-76
2022/06/06 01:00:33;;;;;;;18.10;12.57;;;21.00;99.90;;;;;;5013622;28;20132;-76
2022/06/06 01:03:04;;;;;;;16.95;12.93;;;21.00;99.90;;;;;;5014061;28;20054;-75
2022/06/06 01:05:34;;;;;;;16.52;12.35;;;21.10;99.90;;;;;;5014256;28;20045;-75
2022/06/06 01:08:01;;;;;;;17.27;12.48;;;21.10;99.90;;;;;;5014316;28;20046;-76
2022/06/06 01:10:28;;;;;;;16.35;12.38;;;21.00;99.90;;;;;;5015177;28;20097;-76
2022/06/06 01:12:57;;;;;;;15.88;13.30;;;21.00;99.90;;;;;;5015274;28;20104;-76
2022/06/06 01:15:31;;;;;;;15.30;12.95;;;21.00;99.90;;;;;;5016063;28;20038;-76
2022/06/06 01:18:06;;;;;;;22.42;15.98;;;20.90;99.90;;;;;;5014694;28;20049;-75
2022/06/06 01:20:54;;;;;;;14.35;12.10;;;20.80;99.90;;;;;;5014493;28;20049;-76
2022/06/06 01:23:44;;;;;;;17.75;13.23;;;20.80;99.90;;;;;;5014188;28;20069;-76
2022/06/06 01:26:41;;;;;;;17.88;12.55;;;20.80;99.90;;;;;;5018968;28;20046;-75
2022/06/06 01:29:15;;;;;;;18.20;12.68;;;20.80;99.90;;;;;;5030117;28;20079;-76
2022/06/06 01:31:48;;;;;;;15.70;12.98;;;20.70;99.90;;;;;;5026998;28;20084;-75
2022/06/06 01:34:23;;;;;;;15.48;13.73;;;20.70;99.90;;;;;;5017662;28;20489;-75
2022/06/06 01:36:52;;;;;;;15.32;12.85;;;20.60;99.90;;;;;;5016925;28;20109;-75
2022/06/06 01:39:21;;;;;;;14.60;12.95;;;20.50;99.90;;;;;;5014302;28;20041;-76
2022/06/06 01:41:53;;;;;;;14.05;12.55;;;20.50;99.90;;;;;;5013780;28;20042;-76
2022/06/06 01:44:29;;;;;;;16.67;12.80;;;20.40;99.90;;;;;;5029022;28;20455;-76
2022/06/06 01:47:00;;;;;;;19.23;13.02;;;20.40;99.90;;;;;;5031254;28;20045;-76
2022/06/06 01:49:29;;;;;;;16.58;12.98;;;20.30;99.90;;;;;;5033382;28;20119;-76
2022/06/06 01:52:01;;;;;;;13.73;12.43;;;20.30;99.90;;;;;;5030239;28;20124;-76
2022/06/06 01:54:29;;;;;;;13.60;12.18;;;20.30;99.90;;;;;;5011980;28;20163;-76
2022/06/06 01:56:58;;;;;;;16.05;12.30;;;20.20;99.90;;;;;;5018495;28;20080;-76
2022/06/06 01:59:27;;;;;;;17.05;12.80;;;20.20;99.90;;;;;;5016603;28;20127;-76
2022/06/06 02:01:54;;;;;;;17.80;12.32;;;20.20;99.90;;;;;;5014316;28;20100;-75
2022/06/06 02:04:22;;;;;;;15.02;12.57;;;20.20;99.90;;;;;;5013207;28;20080;-76
2022/06/06 02:06:49;;;;;;;15.30;12.88;;;20.10;99.90;;;;;;5013365;28;20497;-75
2022/06/06 02:09:16;;;;;;;18.13;12.45;;;20.00;99.90;;;;;;5013396;28;20050;-76
2022/06/06 02:11:43;;;;;;;17.27;12.73;;;19.90;99.90;;;;;;5012811;28;20084;-76
2022/06/06 02:14:11;;;;;;;17.45;12.40;;;19.80;99.90;;;;;;5016665;28;20058;-76
2022/06/06 02:16:40;;;;;;;18.77;12.95;;;19.80;99.90;;;;;;5018079;28;20080;-75
2022/06/06 02:19:11;;;;;;;15.63;12.82;;;19.80;99.90;;;;;;5017012;28;20049;-76
2022/06/06 02:21:38;;;;;;;15.98;13.90;;;19.80;99.90;;;;;;5016708;28;20137;-76
2022/06/06 02:24:06;;;;;;;13.57;12.18;;;19.80;99.90;;;;;;5016683;28;20501;-75
2022/06/06 02:26:33;;;;;;;15.85;12.88;;;19.70;99.90;;;;;;5016813;28;20077;-75
2022/06/06 02:29:02;;;;;;;18.40;13.05;;;19.80;99.90;;;;;;5030478;28;20091;-76
2022/06/06 02:31:29;;;;;;;16.70;13.02;;;19.70;99.90;;;;;;5034770;28;20044;-75
2022/06/06 02:33:58;;;;;;;16.70;14.13;;;19.70;99.90;;;;;;5036360;28;20095;-75
2022/06/06 02:36:25;;;;;;;16.30;14.02;;;19.70;99.90;;;;;;5035225;28;20570;-75
2022/06/06 02:38:52;;;;;;;14.13;12.60;;;19.60;99.90;;;;;;5036642;28;20438;-75
2022/06/06 02:41:22;;;;;;;14.30;12.82;;;19.60;99.90;;;;;;5036259;28;20063;-75
2022/06/06 02:43:49;;;;;;;18.23;13.05;;;19.50;99.90;;;;;;5022548;28;20125;-75
2022/06/06 02:46:16;;;;;;;14.90;12.15;;;19.50;99.90;;;;;;5017465;28;20041;-75
2022/06/06 02:48:44;;;;;;;16.50;11.98;;;19.40;99.90;;;;;;5016426;28;20057;-75
2022/06/06 02:51:12;;;;;;;15.38;12.73;;;19.40;99.90;;;;;;5020576;28;20128;-75
2022/06/06 02:53:41;;;;;;;16.75;13.27;;;19.40;99.90;;;;;;5035655;28;20378;-76
2022/06/06 02:56:08;;;;;;;19.33;13.52;;;19.40;99.90;;;;;;5029008;28;20038;-76
2022/06/06 02:58:35;;;;;;;14.30;12.90;;;19.30;99.90;;;;;;5025257;28;20135;-75
2022/06/06 03:01:06;;;;;;;18.50;13.98;;;19.20;99.90;;;;;;5032387;28;20045;-75
2022/06/06 03:03:34;;;;;;;15.80;12.48;;;19.20;99.90;;;;;;5031519;28;20080;-75
2022/06/06 03:06:18;;;;;;;16.80;12.98;;;19.20;99.90;;;;;;5034353;28;20501;-75
2022/06/06 03:09:01;;;;;;;16.20;12.48;;;19.20;99.90;;;;;;5035974;28;20045;-75
2022/06/06 03:12:12;;;;;;;14.95;12.32;;;19.10;99.90;;;;;;5034109;28;20037;-75
2022/06/06 03:15:02;;;;;;;15.70;11.95;;;19.10;99.90;;;;;;4993595;28;20046;-75
2022/06/06 03:20:48;;;;;;;13.00;11.18;;;19.40;99.90;;;;;;5014437;28;20133;-75
2022/06/06 03:23:33;;;;;;;15.63;11.93;;;19.40;99.90;;;;;;5013893;28;20417;-75
2022/06/06 03:26:07;;;;;;;16.67;11.60;;;19.40;99.90;;;;;;5014328;28;20049;-75
2022/06/06 03:28:49;;;;;;;15.88;10.93;;;19.40;99.90;;;;;;5017231;28;20703;-75
2022/06/06 03:31:29;;;;;;;12.80;11.18;;;19.40;99.90;;;;;;5015274;28;20489;-75
2022/06/06 03:34:03;;;;;;;18.88;11.93;;;19.40;99.90;;;;;;5030089;28;20049;-75
2022/06/06 03:36:39;;;;;;;12.75;10.65;;;19.50;99.90;;;;;;5035328;28;20041;-75
2022/06/06 03:39:16;;;;;;;11.90;10.32;;;19.60;99.90;;;;;;5035930;28;20041;-75
2022/06/06 03:41:54;;;;;;;11.30;10.10;;;19.70;99.90;;;;;;5035303;28;20401;-75
2022/06/06 03:44:31;;;;;;;12.57;9.73;;;19.90;99.90;;;;;;5021867;28;20104;-75
2022/06/06 03:47:12;;;;;;;14.50;9.93;;;20.00;99.90;;;;;;5015503;28;20065;-76
2022/06/06 03:50:00;;;;;;;16.77;10.43;;;20.20;99.90;;;;;;5017240;28;20120;-76
2022/06/06 03:52:34;;;;;;;17.58;9.63;;;20.40;99.90;;;;;;5034925;28;20099;-76
2022/06/06 03:55:11;;;;;;;16.58;10.13;;;20.50;99.90;;;;;;5029501;28;20046;-75
2022/06/06 03:57:42;;;;;;;16.73;9.75;;;20.70;99.90;;;;;;5020797;28;20041;-75
2022/06/06 04:00:12;;;;;;;13.77;9.43;;;20.80;99.90;;;;;;5017253;28;20049;-75
2022/06/06 04:02:42;;;;;;;13.27;9.55;;;20.70;99.90;;;;;;5015412;28;20041;-75
2022/06/06 04:05:12;;;;;;;11.40;10.20;;;20.60;99.90;;;;;;5014785;28;20049;-75
2022/06/06 04:07:40;;;;;;;12.68;9.52;;;20.60;99.90;;;;;;5013481;28;20072;-75
2022/06/06 04:10:09;;;;;;;12.48;9.57;;;21.30;99.90;;;;;;5014893;28;20065;-75
2022/06/06 04:12:52;;;;;;;13.60;9.55;;;21.70;99.90;;;;;;5017319;28;20054;-75
2022/06/06 04:15:25;;;;;;;16.90;8.57;;;22.60;99.90;;;;;;5018577;28;20050;-75
2022/06/06 04:18:06;;;;;;;12.00;8.25;;;23.40;99.90;;;;;;5019747;28;20061;-75
2022/06/06 04:20:39;;;;;;;18.33;8.27;;;24.10;99.90;;;;;;5024827;28;20046;-75
2022/06/06 04:23:31;;;;;;;11.77;8.52;;;24.80;99.90;;;;;;5036984;28;20056;-75
2022/06/06 04:26:11;;;;;;;9.00;7.63;;;25.00;99.90;;;;;;5040385;28;20087;-75
2022/06/06 04:28:52;;;;;;;9.27;7.25;;;25.60;99.90;;;;;;5037983;28;20068;-76
2022/06/06 04:31:25;;;;;;;16.35;7.00;;;26.30;99.90;;;;;;5032002;28;20053;-75
2022/06/06 04:34:01;;;;;;;11.20;6.97;;;26.90;99.90;;;;;;5038244;28;20065;-75
2022/06/06 04:36:34;;;;;;;10.23;7.15;;;27.10;99.90;;;;;;5030196;28;20056;-75
2022/06/06 04:39:07;;;;;;;9.05;6.93;;;26.40;99.90;;;;;;5020831;28;20050;-75
2022/06/06 04:41:41;;;;;;;10.52;7.90;;;26.40;99.90;;;;;;5029133;28;20045;-75
2022/06/06 04:44:16;;;;;;;12.38;7.70;;;25.60;99.90;;;;;;5036622;28;20077;-76
2022/06/06 04:46:50;;;;;;;17.17;8.15;;;24.70;99.90;;;;;;5022669;28;20044;-76
2022/06/06 04:49:17;;;;;;;14.20;8.00;;;24.40;99.90;;;;;;5032573;28;20045;-76
2022/06/06 04:51:46;;;;;;;12.95;9.30;;;24.20;99.90;;;;;;5032569;28;20046;-76
2022/06/06 04:54:21;;;;;;;19.42;8.32;;;24.20;99.90;;;;;;5023721;28;20045;-77
2022/06/06 04:56:52;;;;;;;15.60;8.93;;;24.50;99.90;;;;;;5030140;28;20369;-76
2022/06/06 04:59:22;;;;;;;10.93;8.60;;;25.40;99.90;;;;;;5028853;28;20042;-76
2022/06/06 05:01:50;;;;;;;14.55;10.07;;;26.00;99.90;;;;;;5013936;28;20084;-76
2022/06/06 05:04:17;;;;;;;16.25;10.25;;;26.40;99.90;;;;;;5011061;28;20137;-76
2022/06/06 05:07:15;;;;;;;14.30;7.95;;;27.00;99.90;;;;;;5013645;28;20054;-76
2022/06/06 05:09:56;;;;;;;;;;;28.10;99.90;;;;;;5015434;28;20042;-76
2022/06/06 05:12:43;;;;;;;26.27;11.77;;;29.00;99.90;;;;;;5013959;28;19922;-77
2022/06/06 05:15:34;;;;;;;17.20;8.20;;;29.60;99.90;;;;;;5013041;28;20482;-76
2022/06/06 05:18:13;;;;;;;12.70;7.05;;;30.00;99.90;;;;;;5019366;28;20042;-77
2022/06/06 05:21:09;;;;;;;10.50;7.07;;;30.40;99.90;;;;;;5020380;28;20048;-77
2022/06/06 05:24:00;;;;;;;14.60;8.80;;;30.70;99.90;;;;;;5018991;28;20555;-78
2022/06/06 05:26:42;;;;;;;13.50;6.95;;;31.00;99.90;;;;;;5019296;28;20042;-78
2022/06/06 05:29:33;;;;;;;15.57;7.68;;;31.80;99.90;;;;;;5018395;28;20038;-77
2022/06/06 05:32:24;;;;;;;10.88;7.13;;;32.50;99.90;;;;;;5015315;28;20065;-77
2022/06/06 05:35:00;;;;;;;13.48;9.32;;;32.10;99.90;;;;;;5016022;28;20073;-78
2022/06/06 05:37:38;;;;;;;11.85;6.75;;;32.20;99.90;;;;;;5015827;28;20108;-77
2022/06/06 05:40:21;;;;;;;10.80;7.10;;;32.30;99.90;;;;;;5016057;28;20121;-78
2022/06/06 05:43:07;;;;;;;12.73;7.72;;;32.00;99.90;;;;;;5015163;28;20049;-77
2022/06/06 05:45:42;;;;;;;13.40;8.25;;;31.40;99.90;;;;;;5014157;28;20050;-77
2022/06/06 05:48:23;;;;;;;17.77;10.00;;;30.80;99.90;;;;;;5015829;28;20053;-77
2022/06/06 05:51:03;;;;;;;13.98;8.23;;;30.40;99.90;;;;;;5017435;28;20108;-77
2022/06/06 05:53:49;;;;;;;14.32;9.65;;;30.20;99.90;;;;;;5017223;28;20401;-76
2022/06/06 05:56:47;;;;;;;16.92;8.75;;;30.20;99.90;;;;;;5019212;28;20192;-77
2022/06/06 05:59:32;;;;;;;10.88;8.65;;;30.10;99.90;;;;;;5017638;28;20100;-77
2022/06/06 06:02:21;;;;;;;20.17;12.00;;;30.30;99.90;;;;;;5021498;28;20038;-76
2022/06/06 06:05:15;;;;;;;14.52;10.95;;;30.50;99.90;;;;;;5021583;28;20044;-77
2022/06/06 06:07:51;;;;;;;16.98;11.80;;;30.70;99.90;;;;;;5022194;28;20066;-78
2022/06/06 06:10:27;;;;;;;23.35;12.25;;;30.70;99.90;;;;;;5021712;28;20046;-77
2022/06/06 06:13:18;;;;;;;15.88;11.95;;;30.40;99.90;;;;;;5018573;28;20069;-77
2022/06/06 06:15:46;;;;;;;16.73;10.15;;;30.00;99.90;;;;;;5019746;28;20073;-78
2022/06/06 06:18:21;;;;;;;19.02;9.55;;;29.40;99.90;;;;;;5020495;28;20049;-78
2022/06/06 06:20:54;;;;;;;16.30;9.77;;;29.40;99.90;;;;;;5019785;28;20049;-77
2022/06/06 06:23:27;;;;;;;18.33;12.02;;;29.80;99.90;;;;;;5019942;28;20041;-77
2022/06/06 06:25:55;;;;;;;17.70;11.27;;;29.80;99.90;;;;;;5019401;28;20061;-77
2022/06/06 06:28:23;;;;;;;20.17;13.10;;;29.90;99.90;;;;;;5018719;28;20050;-76
2022/06/06 06:31:03;;;;;;;13.55;10.93;;;29.70;99.90;;;;;;5019132;28;20045;-77
2022/06/06 06:33:44;;;;;;;18.63;12.20;;;29.90;99.90;;;;;;5017083;28;20042;-77
2022/06/06 06:36:22;;;;;;;17.15;11.25;;;30.10;99.90;;;;;;5019051;28;20073;-77
2022/06/06 06:39:05;;;;;;;16.60;13.15;;;30.30;99.90;;;;;;5019980;28;20126;-77
2022/06/06 06:41:41;;;;;;;19.52;13.60;;;29.60;99.90;;;;;;5019891;28;20037;-76
2022/06/06 06:44:11;;;;;;;15.82;11.88;;;29.20;99.90;;;;;;5019327;28;20121;-77
2022/06/06 06:46:42;;;;;;;18.48;13.20;;;29.00;99.90;;;;;;5019582;28;20122;-78
2022/06/06 06:49:27;;;;;;;18.08;13.93;;;29.00;99.90;;;;;;5017083;28;20042;-77
2022/06/06 06:52:03;;;;;;;16.40;12.90;;;28.90;99.90;;;;;;5017728;28;20095;-78
2022/06/06 06:54:52;;;;;;;23.15;15.15;;;28.80;99.90;;;;;;5017136;28;20108;-76
2022/06/06 06:57:33;;;;;;;21.98;17.05;;;28.50;99.90;;;;;;5021260;28;20478;-78
2022/06/06 07:00:09;;;;;;;20.63;15.65;;;27.50;99.90;;;;;;5017695;28;20045;-79
2022/06/06 07:08:37;;;;;;;0.50;0.50;;;26.30;99.90;;;;;;5019961;28;20050;-80
2022/06/06 07:11:29;;;;;;;1.90;1.52;;;26.50;99.90;;;;;;5019549;28;20357;-80
2022/06/06 07:14:05;;;;;;;1.40;1.30;;;26.70;99.90;;;;;;5020071;28;20058;-80
2022/06/06 07:16:35;;;;;;;4.70;2.10;;;26.60;99.90;;;;;;5019367;28;20085;-80
2022/06/06 07:19:08;;;;;;;1.23;1.00;;;26.70;99.90;;;;;;5017732;28;20056;-81
2022/06/06 07:21:39;;;;;;;2.03;1.73;;;26.90;99.90;;;;;;5018932;28;20061;-81
2022/06/06 07:24:09;;;;;;;6.55;1.15;;;27.00;99.90;;;;;;5018499;28;20128;-80
2022/06/06 07:26:39;;;;;;;2.00;1.90;;;26.70;99.90;;;;;;5034499;28;20041;-80
2022/06/06 07:29:07;;;;;;;2.90;1.20;;;26.30;99.90;;;;;;5046013;28;20103;-79
2022/06/06 07:31:58;;;;;;;0.82;0.82;;;26.30;99.90;;;;;;5026366;28;20129;-79
2022/06/06 07:34:52;;;;;;;0.30;0.30;;;26.20;99.90;;;;;;5032959;28;20128;-79
2022/06/06 07:37:35;;;;;;;1.77;1.25;;;26.30;99.90;;;;;;5017853;28;20168;-80
2022/06/06 07:40:13;;;;;;;0.93;0.90;;;26.30;99.90;;;;;;5037701;28;20060;-79
2022/06/06 07:42:57;;;;;;;2.10;1.73;;;26.10;99.90;;;;;;5052434;28;20050;-78
2022/06/06 07:45:30;;;;;;;7.18;2.72;;;26.00;99.90;;;;;;5044820;28;20042;-78
2022/06/06 07:48:34;;;;;;;1.08;1.05;;;25.70;99.90;;;;;;5031861;28;20076;-78
2022/06/06 07:51:09;;;;;;;2.70;2.50;;;25.50;99.90;;;;;;5037863;28;20041;-79
2022/06/06 07:53:46;;;;;;;1.77;1.67;;;25.30;99.90;;;;;;5037919;28;20034;-79
2022/06/06 07:56:18;;;;;;;1.65;1.55;;;25.20;99.90;;;;;;5027331;28;20103;-78
2022/06/06 07:58:55;;;;;;;1.70;1.60;;;25.10;99.90;;;;;;5017544;28;20042;-78
2022/06/06 08:01:30;;;;;;;2.88;0.82;;;24.80;99.90;;;;;;5018442;28;20096;-78
2022/06/06 08:04:09;;;;;;;3.35;1.90;;;24.70;99.90;;;;;;5030397;28;20076;-78
2022/06/06 08:06:45;;;;;;;1.92;1.55;;;24.40;99.90;;;;;;5016840;28;20180;-77
2022/06/06 08:09:46;;;;;;;0.90;0.90;;;24.30;99.90;;;;;;5015839;28;20042;-77
2022/06/06 08:12:44;;;;;;;1.40;1.30;;;24.00;99.90;;;;;;5018919;28;20120;-78
2022/06/06 08:15:23;;;;;;;1.38;1.25;;;23.80;99.90;;;;;;5012258;28;20058;-77
2022/06/06 08:18:27;;;;;;;0.32;0.32;;;23.70;99.90;;;;;;5032756;28;20053;-77
2022/06/06 08:21:06;;;;;;;0.73;0.73;;;23.60;99.90;;;;;;5019399;28;20057;-76
2022/06/06 08:23:35;;;;;;;1.50;1.25;;;23.40;99.90;;;;;;5016098;28;20119;-76
2022/06/06 08:26:05;;;;;;;0.65;0.52;;;23.40;99.90;;;;;;5014953;28;20045;-75
2022/06/06 08:28:32;;;;;;;0.77;0.77;;;23.50;99.90;;;;;;5023347;28;20037;-76
2022/06/06 08:31:00;;;;;;;3.80;1.45;;;23.60;99.90;;;;;;5014829;28;20046;-76
2022/06/06 08:33:27;;;;;;;1.88;1.77;;;23.70;99.90;;;;;;5014697;28;20038;-75
2022/06/06 08:36:07;;;;;;;0.43;0.43;;;23.70;99.90;;;;;;5013844;28;20065;-75
2022/06/06 08:38:46;;;;;;;1.20;1.10;;;23.80;99.90;;;;;;5015283;28;20041;-75
2022/06/06 08:41:47;;;;;;;0.68;0.68;;;24.00;99.90;;;;;;5014673;28;20048;-75
2022/06/06 08:44:28;;;;;;;1.55;1.15;;;24.10;99.90;;;;;;4991683;28;20077;-75
2022/06/06 08:47:05;;;;;;;0.90;0.63;;;24.30;99.90;;;;;;5014454;28;20037;-76
2022/06/06 08:53:31;;;;;;;1.58;1.23;;;24.10;99.90;;;;;;5014715;28;20077;-76
2022/06/06 08:56:37;;;;;;;0.80;0.80;;;23.90;99.90;;;;;;5014128;28;20050;-76
2022/06/06 08:59:47;;;;;;;1.40;1.03;;;23.70;99.90;;;;;;5014300;28;20120;-77
2022/06/06 09:02:58;;;;;;;0.85;0.50;;;23.80;99.90;;;;;;5014165;28;20108;-76
2022/06/06 09:06:20;;;;;;;1.08;0.98;;;24.00;99.90;;;;;;5013786;28;20056;-76
2022/06/06 09:09:24;;;;;;;1.33;0.65;;;24.50;99.90;;;;;;5014388;28;20046;-76
2022/06/06 09:12:20;;;;;;;0.82;0.60;;;24.90;99.90;;;;;;5012312;28;20046;-76
2022/06/06 09:15:24;;;;;;;3.20;0.47;;;25.40;99.90;;;;;;5013722;28;20046;-77
2022/06/06 09:18:30;;;;;;;0.40;0.40;;;25.40;99.90;;;;;;5014054;28;20041;-76
2022/06/06 09:21:40;;;;;;;1.58;1.13;;;25.70;99.90;;;;;;5014016;28;20042;-76
2022/06/06 09:24:45;;;;;;;0.38;0.38;;;26.10;99.90;;;;;;5013541;28;20413;-76
2022/06/06 09:27:45;;;;;;;0.52;0.52;;;25.90;99.90;;;;;;5014034;28;20042;-77
2022/06/06 09:30:26;;;;;;;0.82;0.82;;;26.00;99.90;;;;;;5013595;28;20096;-76
2022/06/06 09:33:18;;;;;;;1.38;0.65;;;26.10;99.90;;;;;;5013531;28;20512;-77
2022/06/06 09:36:01;;;;;;;0.40;0.40;;;25.90;99.90;;;;;;5014249;28;20115;-77
2022/06/06 09:38:46;;;;;;;0.68;0.68;;;26.20;99.90;;;;;;5019855;28;20058;-76
2022/06/06 09:41:36;;;;;;;0.40;0.38;;;25.70;99.90;;;;;;5026339;28;20077;-76
2022/06/06 09:44:13;;;;;;;0.63;0.63;;;25.60;99.90;;;;;;5021853;28;20136;-77
2022/06/06 09:47:10;;;;;;;0.30;0.30;;;25.60;99.90;;;;;;5014959;28;20050;-77
2022/06/06 09:50:27;;;;;;;5.90;2.35;;;25.80;99.90;;;;;;5013915;28;20042;-77
2022/06/06 10:00:08;;;;;;;0.50;0.50;;;25.60;99.90;;;;;;5013322;28;20041;-76
2022/06/06 10:03:08;;;;;;;0.30;0.30;;;25.40;99.90;;;;;;5014140;28;20038;-76
2022/06/06 10:06:13;;;;;;;3.05;1.15;;;25.20;99.90;;;;;;5012869;28;20405;-77
2022/06/06 10:09:28;;;;;;;1.77;0.63;;;25.10;99.90;;;;;;5015488;28;20477;-76
2022/06/06 10:12:25;;;;;;;0.20;0.20;;;25.20;99.90;;;;;;5011337;28;20213;-77
2022/06/06 10:15:09;;;;;;;0.82;0.80;;;25.40;99.90;;;;;;5013196;28;20062;-76
2022/06/06 10:17:58;;;;;;;0.52;0.38;;;25.50;99.90;;;;;;5013112;28;20046;-76
2022/06/06 10:20:39;;;;;;;0.32;0.32;;;25.60;99.90;;;;;;5012958;28;20080;-76
2022/06/06 10:23:19;;;;;;;0.20;0.20;;;25.50;99.90;;;;;;5013971;28;20378;-76
2022/06/06 10:26:04;;;;;;;0.65;0.65;;;25.50;99.90;;;;;;5013027;28;20064;-76
2022/06/06 10:28:54;;;;;;;0.20;0.20;;;25.60;99.90;;;;;;5013182;28;20042;-76
2022/06/06 10:31:36;;;;;;;0.35;0.35;;;25.80;99.90;;;;;;4980261;28;20041;-76
2022/06/06 10:34:27;;;;;;;0.25;0.25;;;26.00;99.90;;;;;;5015350;28;20552;-76
2022/06/06 10:37:19;;;;;;;0.30;0.30;;;26.20;99.90;;;;;;5017537;28;20564;-77
2022/06/06 10:40:06;;;;;;;0.20;0.20;;;26.30;99.90;;;;;;5017275;28;20053;-76
2022/06/06 10:43:10;;;;;;;0.50;0.50;;;26.30;99.90;;;;;;5016886;28;20046;-75
2022/06/06 10:45:38;;;;;;;0.50;0.45;;;25.90;99.90;;;;;;5017231;28;20042;-76
2022/06/06 10:48:25;;;;;;;0.57;0.57;;;26.00;99.90;;;;;;5016176;28;20050;-77
2022/06/06 10:51:40;;;;;;;0.45;0.45;;;26.20;99.90;;;;;;5015911;28;20100;-75
2022/06/06 10:54:33;;;;;;;0.00;0.00;;;26.50;99.90;;;;;;5016628;28;20383;-76
2022/06/06 10:57:28;;;;;;;0.17;0.17;;;26.70;99.90;;;;;;5016725;28;20069;-76
2022/06/06 11:00:16;;;;;;;0.57;0.57;;;27.00;99.90;;;;;;5013588;28;20054;-76
2022/06/06 11:03:13;;;;;;;2.00;0.65;;;27.10;99.90;;;;;;5014609;28;20052;-76
2022/06/06 11:06:17;;;;;;;0.10;0.10;;;27.40;99.90;;;;;;5016686;28;20038;-77
2022/06/06 11:09:18;;;;;;;1.02;0.60;;;27.60;99.90;;;;;;4993383;28;20046;-77
2022/06/06 11:12:36;;;;;;;0.70;0.68;;;27.80;99.90;;;;;;5016125;28;20041;-76
2022/06/06 11:15:05;;;;;;;0.13;0.13;;;27.80;99.90;;;;;;4968888;28;20059;-77
2022/06/06 11:18:23;;;;;;;1.35;0.75;;;27.90;99.90;;;;;;4959645;28;20055;-77
2022/06/06 11:21:26;;;;;;;0.52;0.20;;;27.80;99.90;;;;;;5002710;28;20089;-76
2022/06/06 11:24:01;;;;;;;1.65;0.73;;;28.00;99.90;;;;;;5017462;28;20042;-76
2022/06/06 11:27:06;;;;;;;0.10;0.10;;;28.40;99.90;;;;;;5016488;28;20049;-76
2022/06/06 11:30:03;;;;;;;0.17;0.17;;;28.20;99.90;;;;;;4993146;28;20061;-77
2022/06/06 11:33:16;;;;;;;0.22;0.22;;;27.70;99.90;;;;;;5015491;28;20511;-76
2022/06/06 11:36:06;;;;;;;0.28;0.28;;;27.40;99.90;;;;;;4974887;28;20433;-76
2022/06/06 11:39:06;;;;;;;0.10;0.10;;;26.90;99.90;;;;;;4975263;28;20071;-77
2022/06/06 11:41:52;;;;;;;0.73;0.63;;;26.50;99.90;;;;;;5009975;28;20089;-76
2022/06/06 11:44:55;;;;;;;0.47;0.47;;;26.50;99.90;;;;;;5017558;28;20523;-77
2022/06/06 11:47:46;;;;;;;0.30;0.30;;;26.40;99.90;;;;;;5016237;28;20092;-77
2022/06/06 11:50:45;;;;;;;0.10;0.10;;;26.80;99.90;;;;;;5017125;28;20115;-77
2022/06/06 11:53:44;;;;;;;0.10;0.10;;;26.70;99.90;;;;;;5015916;28;20049;-76
2022/06/06 11:56:24;;;;;;;0.20;0.20;;;26.50;99.90;;;;;;5015682;28;20042;-76
2022/06/06 11:59:31;;;;;;;0.08;0.08;;;26.30;99.90;;;;;;5016139;28;20066;-76
2022/06/06 12:02:45;;;;;;;0.43;0.30;;;26.80;99.90;;;;;;5016685;28;20042;-76
2022/06/06 12:05:42;;;;;;;0.10;0.10;;;27.60;99.90;;;;;;4974251;28;20039;-77
2022/06/06 12:08:45;;;;;;;2.33;1.35;;;28.10;99.90;;;;;;4958510;28;20047;-77
2022/06/06 12:11:41;;;;;;;0.20;0.20;;;28.20;99.90;;;;;;5011309;28;20089;-77
2022/06/06 12:14:41;;;;;;;1.67;0.45;;;28.70;99.90;;;;;;5014760;28;20108;-77
2022/06/06 12:17:21;;;;;;;0.57;0.38;;;29.00;99.90;;;;;;4998481;28;20128;-76
2022/06/06 12:20:21;;;;;;;0.10;0.10;;;29.40;98.50;;;;;;5015195;28;20453;-76
2022/06/06 12:23:10;;;;;;;0.57;0.15;;;29.60;99.90;;;;;;5013144;28;20077;-76
2022/06/06 12:25:58;;;;;;;0.55;0.55;;;29.10;99.90;;;;;;5015101;28;20119;-77
2022/06/06 12:29:01;;;;;;;5.97;3.75;;;29.10;99.90;;;;;;5015146;28;20044;-77
2022/06/06 12:31:52;;;;;;;4.15;2.70;;;29.00;99.90;;;;;;5015355;28;20046;-77
2022/06/06 12:34:25;;;;;;;3.95;2.45;;;28.70;99.90;;;;;;5020572;28;20120;-76
2022/06/06 12:36:59;;;;;;;3.53;2.63;;;28.40;99.90;;;;;;5039237;28;20041;-80
2022/06/06 12:39:40;;;;;;;5.07;3.17;;;28.00;99.90;;;;;;5039258;28;20057;-80
2022/06/06 12:42:16;;;;;;;4.40;3.40;;;27.40;99.90;;;;;;5053122;28;20068;-79
2022/06/06 12:45:10;;;;;;;5.57;3.00;;;26.60;99.90;;;;;;5060234;28;20045;-79
2022/06/06 12:48:04;;;;;;;4.80;3.08;;;26.20;99.90;;;;;;5055484;28;20049;-80
2022/06/06 12:50:42;;;;;;;6.57;3.40;;;26.40;99.90;;;;;;5039762;28;20050;-80
2022/06/06 12:53:27;;;;;;;5.07;3.60;;;26.80;99.90;;;;;;5042536;28;20489;-81
2022/06/06 12:56:20;;;;;;;4.97;3.63;;;27.30;99.90;;;;;;5046819;28;20125;-80
2022/06/06 12:59:01;;;;;;;6.47;3.45;;;27.50;99.90;;;;;;5044323;28;20057;-80
2022/06/06 13:01:43;;;;;;;6.65;3.92;;;27.80;99.90;;;;;;5053491;28;20084;-81
2022/06/06 13:04:47;;;;;;;4.35;2.83;;;27.60;99.90;;;;;;5049896;28;20117;-80
2022/06/06 13:07:29;;;;;;;6.82;3.05;;;27.70;99.90;;;;;;5039208;28;20046;-80
2022/06/06 13:10:05;;;;;;;5.70;3.47;;;27.80;99.90;;;;;;5044050;28;20047;-80
2022/06/06 13:12:52;;;;;;;4.18;3.03;;;27.00;99.90;;;;;;5048765;28;20061;-79
2022/06/06 13:15:29;;;;;;;5.95;3.28;;;27.20;99.90;;;;;;5038164;28;20041;-80
2022/06/06 13:18:11;;;;;;;3.40;2.67;;;27.60;99.90;;;;;;5044199;28;20042;-80
2022/06/06 13:20:48;;;;;;;5.65;3.97;;;27.60;99.90;;;;;;5038592;28;20059;-79
2022/06/06 13:23:30;;;;;;;4.88;3.13;;;27.20;99.90;;;;;;5029108;28;20073;-79
2022/06/06 13:26:22;;;;;;;4.13;3.40;;;27.60;99.90;;;;;;5043239;28;20057;-80
2022/06/06 13:28:51;;;;;;;7.18;3.35;;;27.80;99.90;;;;;;5046719;28;20049;-79
2022/06/06 13:31:37;;;;;;;6.68;4.00;;;27.80;99.90;;;;;;5046190;28;20329;-79
2022/06/06 13:34:15;;;;;;;6.40;4.28;;;27.80;99.90;;;;;;5050303;28;20049;-78
2022/06/06 13:36:56;;;;;;;5.85;4.13;;;27.70;99.90;;;;;;5045291;28;20045;-82
2022/06/06 13:39:37;;;;;;;4.63;3.40;;;27.70;99.90;;;;;;5066854;28;20034;-79
2022/06/06 13:42:13;;;;;;;4.45;3.47;;;27.30;99.90;;;;;;5052369;28;20061;-79
2022/06/06 13:45:09;;;;;;;5.18;3.97;;;27.00;99.90;;;;;;5050120;28;20037;-80
2022/06/06 13:48:00;;;;;;;9.60;4.78;;;27.00;99.90;;;;;;5049226;28;20022;-80
2022/06/06 13:50:32;;;;;;;7.22;3.90;;;27.00;99.90;;;;;;5051281;28;20045;-80
2022/06/06 13:53:33;;;;;;;7.95;4.78;;;27.00;99.90;;;;;;5037120;28;20069;-80
2022/06/06 13:56:16;;;;;;;7.82;5.03;;;27.00;99.90;;;;;;5028748;28;20050;-81
2022/06/06 13:58:54;;;;;;;7.30;5.63;;;26.70;99.90;;;;;;5029064;28;20046;-79
2022/06/06 14:01:41;;;;;;;10.98;6.47;;;26.70;99.90;;;;;;5038091;28;20026;-81
2022/06/06 14:04:34;;;;;;;12.65;6.13;;;26.50;99.90;;;;;;5037528;28;20064;-79
2022/06/06 14:07:17;;;;;;;9.82;5.38;;;26.50;99.90;;;;;;5033001;28;20069;-80
2022/06/06 14:09:47;;;;;;;11.00;5.97;;;26.40;99.90;;;;;;5041661;28;20042;-80
2022/06/06 14:12:36;;;;;;;11.52;6.38;;;26.30;99.90;;;;;;5042864;28;20069;-80
2022/06/06 14:15:10;;;;;;;8.80;6.40;;;26.20;99.90;;;;;;5045748;28;20053;-78